Adventureland Estates, Iowa
Current Conditions -  °F | °C
As of 12:35 PM on Monday 26 Jan 2015 (Local Time) from KIKV Reporting Station
Clear Clear  
Wind Chill: 43°   Ceiling: Unl
Heat Index: 48°   Visibility: 10mi
Dew Point: 36°   Wind: 14mph
Humidity: 62%   Direction: 320°NW
Pressure: 29.81"   Gusts: 20mph
Location:  41.6405°N, 93.4586°W
Report Text: KIKV 261835Z AUTO 32012G17KT 10SM CLR 09/02 A2981 RMK AO2
Loading
Personal Weather Stations






























Interactive Weather Map New forecast layout! Learn more

10-Day Weather Forecast

Advertisements
Track Severe Weather on mobile